sensor_id;sensor_type;location;lat;lon;timestamp;pressure;altitude;pressure_sealevel;temperature;humidity
50682;BME280;36779;52.168;20.878;2022-12-18T00:00:23;101844.98;;;-5.66;79.44
50682;BME280;36779;52.168;20.878;2022-12-18T00:03:14;101850.17;;;-5.66;79.30
50682;BME280;36779;52.168;20.878;2022-12-18T00:05:47;101851.89;;;-5.65;79.34
50682;BME280;36779;52.168;20.878;2022-12-18T00:08:18;101854.98;;;-5.63;79.38
50682;BME280;36779;52.168;20.878;2022-12-18T00:10:50;101862.24;;;-5.63;79.35
50682;BME280;36779;52.168;20.878;2022-12-18T00:13:20;101861.70;;;-5.62;79.21
50682;BME280;36779;52.168;20.878;2022-12-18T00:15:49;101865.64;;;-5.59;79.20
50682;BME280;36779;52.168;20.878;2022-12-18T00:18:18;101864.56;;;-5.56;79.36
50682;BME280;36779;52.168;20.878;2022-12-18T00:20:48;101866.74;;;-5.51;79.20
50682;BME280;36779;52.168;20.878;2022-12-18T00:23:17;101869.30;;;-5.49;79.25
50682;BME280;36779;52.168;20.878;2022-12-18T00:25:48;101873.95;;;-5.47;79.27
50682;BME280;36779;52.168;20.878;2022-12-18T00:28:17;101874.44;;;-5.45;79.38
50682;BME280;36779;52.168;20.878;2022-12-18T00:30:47;101876.48;;;-5.41;79.33
50682;BME280;36779;52.168;20.878;2022-12-18T00:33:19;101877.48;;;-5.39;79.47
50682;BME280;36779;52.168;20.878;2022-12-18T00:35:47;101876.09;;;-5.40;79.43
50682;BME280;36779;52.168;20.878;2022-12-18T00:38:16;101877.30;;;-5.40;79.50
50682;BME280;36779;52.168;20.878;2022-12-18T00:40:45;101881.79;;;-5.38;79.40
50682;BME280;36779;52.168;20.878;2022-12-18T00:43:16;101887.29;;;-5.35;79.34
50682;BME280;36779;52.168;20.878;2022-12-18T00:45:45;101894.38;;;-5.34;79.34
50682;BME280;36779;52.168;20.878;2022-12-18T00:48:14;101894.17;;;-5.32;79.38
50682;BME280;36779;52.168;20.878;2022-12-18T00:50:43;101901.05;;;-5.29;79.24
50682;BME280;36779;52.168;20.878;2022-12-18T00:53:12;101903.44;;;-5.26;79.35
50682;BME280;36779;52.168;20.878;2022-12-18T00:55:45;101905.16;;;-5.25;79.32
50682;BME280;36779;52.168;20.878;2022-12-18T00:58:15;101904.48;;;-5.26;79.22
50682;BME280;36779;52.168;20.878;2022-12-18T01:00:47;101903.80;;;-5.26;79.36
50682;BME280;36779;52.168;20.878;2022-12-18T01:03:16;101907.09;;;-5.27;79.34
50682;BME280;36779;52.168;20.878;2022-12-18T01:05:45;101912.45;;;-5.27;79.45
50682;BME280;36779;52.168;20.878;2022-12-18T01:08:14;101915.73;;;-5.26;79.43
50682;BME280;36779;52.168;20.878;2022-12-18T01:10:47;101914.66;;;-5.24;79.35
50682;BME280;36779;52.168;20.878;2022-12-18T01:13:15;101921.05;;;-5.23;79.47
50682;BME280;36779;52.168;20.878;2022-12-18T01:15:49;101926.25;;;-5.22;79.48
50682;BME280;36779;52.168;20.878;2022-12-18T01:18:18;101933.16;;;-5.21;79.50
50682;BME280;36779;52.168;20.878;2022-12-18T01:20:47;101938.02;;;-5.21;79.54
50682;BME280;36779;52.168;20.878;2022-12-18T01:23:15;101937.13;;;-5.19;79.46
50682;BME280;36779;52.168;20.878;2022-12-18T01:25:46;101934.48;;;-5.16;79.53
50682;BME280;36779;52.168;20.878;2022-12-18T01:28:15;101936.52;;;-5.14;79.50
50682;BME280;36779;52.168;20.878;2022-12-18T01:30:47;101936.49;;;-5.12;79.37
50682;BME280;36779;52.168;20.878;2022-12-18T01:33:16;101941.30;;;-5.09;79.28
50682;BME280;36779;52.168;20.878;2022-12-18T01:35:47;101943.86;;;-5.08;79.38
50682;BME280;36779;52.168;20.878;2022-12-18T01:38:16;101947.02;;;-5.09;79.36
50682;BME280;36779;52.168;20.878;2022-12-18T01:40:46;101949.81;;;-5.11;79.28
50682;BME280;36779;52.168;20.878;2022-12-18T01:43:15;101954.52;;;-5.11;79.28
50682;BME280;36779;52.168;20.878;2022-12-18T01:45:43;101950.38;;;-5.13;79.38
50682;BME280;36779;52.168;20.878;2022-12-18T01:48:14;101950.92;;;-5.15;79.25
50682;BME280;36779;52.168;20.878;2022-12-18T01:50:46;101958.21;;;-5.16;79.34
50682;BME280;36779;52.168;20.878;2022-12-18T01:53:18;101963.94;;;-5.15;79.31
50682;BME280;36779;52.168;20.878;2022-12-18T01:55:53;101964.27;;;-5.15;79.28
50682;BME280;36779;52.168;20.878;2022-12-18T01:58:30;101967.39;;;-5.14;79.22
50682;BME280;36779;52.168;20.878;2022-12-18T02:01:01;101974.33;;;-5.15;79.23
50682;BME280;36779;52.168;20.878;2022-12-18T02:03:33;101978.84;;;-5.15;79.29
50682;BME280;36779;52.168;20.878;2022-12-18T02:06:13;101988.55;;;-5.16;79.26
50682;BME280;36779;52.168;20.878;2022-12-18T02:08:56;101989.09;;;-5.17;79.34
50682;BME280;36779;52.168;20.878;2022-12-18T02:11:38;101990.33;;;-5.18;79.40
50682;BME280;36779;52.168;20.878;2022-12-18T02:14:17;101993.63;;;-5.18;79.38
50682;BME280;36779;52.168;20.878;2022-12-18T02:16:55;102003.32;;;-5.18;79.29
50682;BME280;36779;52.168;20.878;2022-12-18T02:19:46;102006.25;;;-5.17;79.38
50682;BME280;36779;52.168;20.878;2022-12-18T02:22:19;102009.89;;;-5.16;79.31
50682;BME280;36779;52.168;20.878;2022-12-18T02:24:59;102011.77;;;-5.15;79.32
50682;BME280;36779;52.168;20.878;2022-12-18T02:27:31;102016.48;;;-5.15;79.24
50682;BME280;36779;52.168;20.878;2022-12-18T02:30:01;102024.10;;;-5.16;79.37
50682;BME280;36779;52.168;20.878;2022-12-18T02:32:36;102021.36;;;-5.19;79.43
50682;BME280;36779;52.168;20.878;2022-12-18T02:35:11;102027.94;;;-5.18;79.42
50682;BME280;36779;52.168;20.878;2022-12-18T02:37:44;102030.17;;;-5.16;79.41
50682;BME280;36779;52.168;20.878;2022-12-18T02:40:15;102031.17;;;-5.14;79.37
50682;BME280;36779;52.168;20.878;2022-12-18T02:42:48;102039.66;;;-5.13;79.24
50682;BME280;36779;52.168;20.878;2022-12-18T02:45:18;102042.05;;;-5.11;79.28
50682;BME280;36779;52.168;20.878;2022-12-18T02:47:49;102039.46;;;-5.12;79.35
50682;BME280;36779;52.168;20.878;2022-12-18T02:50:26;102038.97;;;-5.14;79.28
50682;BME280;36779;52.168;20.878;2022-12-18T02:53:06;102043.32;;;-5.15;79.37
50682;BME280;36779;52.168;20.878;2022-12-18T02:55:51;102046.42;;;-5.14;79.40
50682;BME280;36779;52.168;20.878;2022-12-18T02:58:32;102051.09;;;-5.12;79.42
50682;BME280;36779;52.168;20.878;2022-12-18T03:01:11;102055.73;;;-5.10;79.36
50682;BME280;36779;52.168;20.878;2022-12-18T03:03:46;102063.83;;;-5.07;79.46
50682;BME280;36779;52.168;20.878;2022-12-18T03:06:22;102070.41;;;-5.06;79.32
50682;BME280;36779;52.168;20.878;2022-12-18T03:08:57;102070.77;;;-5.06;79.26
50682;BME280;36779;52.168;20.878;2022-12-18T03:11:31;102076.65;;;-5.05;79.39
50682;BME280;36779;52.168;20.878;2022-12-18T03:14:22;102079.08;;;-5.05;79.32
50682;BME280;36779;52.168;20.878;2022-12-18T03:16:54;102082.02;;;-5.06;79.46
50682;BME280;36779;52.168;20.878;2022-12-18T03:19:31;102084.30;;;-5.07;79.35
50682;BME280;36779;52.168;20.878;2022-12-18T03:22:03;102090.37;;;-5.08;79.37
50682;BME280;36779;52.168;20.878;2022-12-18T03:24:42;102091.92;;;-5.07;79.40
50682;BME280;36779;52.168;20.878;2022-12-18T03:27:14;102097.12;;;-5.07;79.30
50682;BME280;36779;52.168;20.878;2022-12-18T03:29:48;102102.32;;;-5.07;79.40
50682;BME280;36779;52.168;20.878;2022-12-18T03:32:26;102104.74;;;-5.05;79.33
50682;BME280;36779;52.168;20.878;2022-12-18T03:35:03;102106.33;;;-5.07;79.42
50682;BME280;36779;52.168;20.878;2022-12-18T03:37:37;102104.80;;;-5.10;79.48
50682;BME280;36779;52.168;20.878;2022-12-18T03:40:07;102106.02;;;-5.11;79.47
50682;BME280;36779;52.168;20.878;2022-12-18T03:42:45;102101.34;;;-5.11;79.47
50682;BME280;36779;52.168;20.878;2022-12-18T03:45:20;102102.56;;;-5.11;79.39
50682;BME280;36779;52.168;20.878;2022-12-18T03:47:59;102107.07;;;-5.11;79.38
50682;BME280;36779;52.168;20.878;2022-12-18T03:50:42;102109.33;;;-5.11;79.36
50682;BME280;36779;52.168;20.878;2022-12-18T03:53:22;102108.84;;;-5.14;79.43
50682;BME280;36779;52.168;20.878;2022-12-18T03:55:53;102110.77;;;-5.16;79.33
50682;BME280;36779;52.168;20.878;2022-12-18T03:58:27;102116.52;;;-5.18;79.25
50682;BME280;36779;52.168;20.878;2022-12-18T04:01:16;102124.49;;;-5.19;79.26
50682;BME280;36779;52.168;20.878;2022-12-18T04:03:48;102131.59;;;-5.17;79.33
50682;BME280;36779;52.168;20.878;2022-12-18T04:06:20;102135.02;;;-5.14;79.41
50682;BME280;36779;52.168;20.878;2022-12-18T04:08:49;102138.81;;;-5.13;79.40
50682;BME280;36779;52.168;20.878;2022-12-18T04:11:21;102140.58;;;-5.15;79.32
50682;BME280;36779;52.168;20.878;2022-12-18T04:13:50;102139.07;;;-5.20;79.31
50682;BME280;36779;52.168;20.878;2022-12-18T04:16:25;102148.83;;;-5.24;79.24
50682;BME280;36779;52.168;20.878;2022-12-18T04:18:55;102151.96;;;-5.25;79.32
50682;BME280;36779;52.168;20.878;2022-12-18T04:21:25;102156.14;;;-5.26;79.20
50682;BME280;36779;52.168;20.878;2022-12-18T04:23:54;102160.13;;;-5.27;79.11
50682;BME280;36779;52.168;20.878;2022-12-18T04:26:23;102165.48;;;-5.25;79.16
50682;BME280;36779;52.168;20.878;2022-12-18T04:29:12;102170.00;;;-5.27;79.25
50682;BME280;36779;52.168;20.878;2022-12-18T04:31:41;102172.28;;;-5.28;79.12
50682;BME280;36779;52.168;20.878;2022-12-18T04:34:11;102177.20;;;-5.33;79.16
50682;BME280;36779;52.168;20.878;2022-12-18T04:36:45;102179.36;;;-5.41;79.11
50682;BME280;36779;52.168;20.878;2022-12-18T04:39:15;102186.17;;;-5.47;79.13
50682;BME280;36779;52.168;20.878;2022-12-18T04:41:44;102189.86;;;-5.51;79.06
50682;BME280;36779;52.168;20.878;2022-12-18T04:44:17;102189.55;;;-5.55;78.98
50682;BME280;36779;52.168;20.878;2022-12-18T04:46:46;102193.93;;;-5.60;78.93
50682;BME280;36779;52.168;20.878;2022-12-18T04:49:26;102193.98;;;-5.65;78.93
50682;BME280;36779;52.168;20.878;2022-12-18T04:51:55;102196.27;;;-5.70;78.97
50682;BME280;36779;52.168;20.878;2022-12-18T04:54:25;102197.02;;;-5.76;78.85
50682;BME280;36779;52.168;20.878;2022-12-18T04:56:57;102204.17;;;-5.82;78.82
50682;BME280;36779;52.168;20.878;2022-12-18T04:59:29;102209.80;;;-5.91;78.90
50682;BME280;36779;52.168;20.878;2022-12-18T05:02:05;102209.38;;;-6.00;79.00
50682;BME280;36779;52.168;20.878;2022-12-18T05:04:37;102214.46;;;-6.07;78.82
50682;BME280;36779;52.168;20.878;2022-12-18T05:07:06;102218.48;;;-6.13;78.81
50682;BME280;36779;52.168;20.878;2022-12-18T05:09:35;102226.13;;;-6.18;78.63
50682;BME280;36779;52.168;20.878;2022-12-18T05:12:07;102230.14;;;-6.22;78.62
50682;BME280;36779;52.168;20.878;2022-12-18T05:14:36;102230.69;;;-6.26;78.64
50682;BME280;36779;52.168;20.878;2022-12-18T05:17:05;102235.02;;;-6.30;78.68
50682;BME280;36779;52.168;20.878;2022-12-18T05:19:33;102243.02;;;-6.32;78.74
50682;BME280;36779;52.168;20.878;2022-12-18T05:22:05;102250.81;;;-6.36;78.63
50682;BME280;36779;52.168;20.878;2022-12-18T05:24:38;102252.58;;;-6.39;78.80
50682;BME280;36779;52.168;20.878;2022-12-18T05:27:07;102250.00;;;-6.43;78.86
50682;BME280;36779;52.168;20.878;2022-12-18T05:29:36;102255.02;;;-6.47;78.68
50682;BME280;36779;52.168;20.878;2022-12-18T05:32:05;102259.38;;;-6.52;78.75
50682;BME280;36779;52.168;20.878;2022-12-18T05:34:34;102259.06;;;-6.56;78.78
50682;BME280;36779;52.168;20.878;2022-12-18T05:37:02;102262.88;;;-6.58;78.93
50682;BME280;36779;52.168;20.878;2022-12-18T05:39:32;102267.54;;;-6.57;78.82
50682;BME280;36779;52.168;20.878;2022-12-18T05:42:01;102267.21;;;-6.60;78.80
50682;BME280;36779;52.168;20.878;2022-12-18T05:44:29;102269.30;;;-6.63;78.93
50682;BME280;36779;52.168;20.878;2022-12-18T05:47:00;102266.72;;;-6.65;78.97
50682;BME280;36779;52.168;20.878;2022-12-18T05:49:30;102267.06;;;-6.65;78.83
50682;BME280;36779;52.168;20.878;2022-12-18T05:51:59;102266.35;;;-6.62;78.93
50682;BME280;36779;52.168;20.878;2022-12-18T05:54:28;102265.30;;;-6.59;78.95
50682;BME280;36779;52.168;20.878;2022-12-18T05:56:57;102269.61;;;-6.55;78.97
50682;BME280;36779;52.168;20.878;2022-12-18T05:59:27;102278.91;;;-6.50;79.00
50682;BME280;36779;52.168;20.878;2022-12-18T06:01:55;102283.58;;;-6.46;78.91
50682;BME280;36779;52.168;20.878;2022-12-18T06:04:27;102285.63;;;-6.44;79.08
50682;BME280;36779;52.168;20.878;2022-12-18T06:06:56;102290.98;;;-6.41;79.13
50682;BME280;36779;52.168;20.878;2022-12-18T06:09:25;102296.17;;;-6.40;79.03
50682;BME280;36779;52.168;20.878;2022-12-18T06:11:54;102304.11;;;-6.38;79.06
50682;BME280;36779;52.168;20.878;2022-12-18T06:14:23;102309.98;;;-6.35;79.21
50682;BME280;36779;52.168;20.878;2022-12-18T06:16:54;102312.40;;;-6.34;79.33
50682;BME280;36779;52.168;20.878;2022-12-18T06:19:23;102316.73;;;-6.33;79.31
50682;BME280;36779;52.168;20.878;2022-12-18T06:21:55;102324.50;;;-6.30;79.26
50682;BME280;36779;52.168;20.878;2022-12-18T06:24:30;102323.98;;;-6.27;79.14
50682;BME280;36779;52.168;20.878;2022-12-18T06:27:01;102328.28;;;-6.24;79.24
50682;BME280;36779;52.168;20.878;2022-12-18T06:29:30;102334.33;;;-6.20;79.12
50682;BME280;36779;52.168;20.878;2022-12-18T06:32:05;102337.92;;;-6.16;79.18
50682;BME280;36779;52.168;20.878;2022-12-18T06:34:37;102347.42;;;-6.10;79.10
50682;BME280;36779;52.168;20.878;2022-12-18T06:37:07;102351.39;;;-6.06;79.24
50682;BME280;36779;52.168;20.878;2022-12-18T06:39:36;102354.14;;;-6.05;79.30
50682;BME280;36779;52.168;20.878;2022-12-18T06:42:05;102359.85;;;-6.03;79.43
50682;BME280;36779;52.168;20.878;2022-12-18T06:44:34;102364.69;;;-6.01;79.29
50682;BME280;36779;52.168;20.878;2022-12-18T06:47:03;102371.44;;;-5.99;79.30
50682;BME280;36779;52.168;20.878;2022-12-18T06:49:31;102376.09;;;-5.96;79.26
50682;BME280;36779;52.168;20.878;2022-12-18T06:52:04;102379.70;;;-5.94;79.47
50682;BME280;36779;52.168;20.878;2022-12-18T06:54:33;102382.09;;;-5.90;79.52
50682;BME280;36779;52.168;20.878;2022-12-18T06:57:03;102383.45;;;-5.88;79.54
50682;BME280;36779;52.168;20.878;2022-12-18T06:59:31;102390.02;;;-5.86;79.52
50682;BME280;36779;52.168;20.878;2022-12-18T07:02:00;102392.25;;;-5.82;79.52
50682;BME280;36779;52.168;20.878;2022-12-18T07:04:32;102395.70;;;-5.78;79.45
50682;BME280;36779;52.168;20.878;2022-12-18T07:07:01;102399.13;;;-5.74;79.61
50682;BME280;36779;52.168;20.878;2022-12-18T07:09:32;102398.76;;;-5.70;79.37
50682;BME280;36779;52.168;20.878;2022-12-18T07:12:01;102400.11;;;-5.65;79.45
50682;BME280;36779;52.168;20.878;2022-12-18T07:14:35;102401.65;;;-5.61;79.32
50682;BME280;36779;52.168;20.878;2022-12-18T07:17:04;102403.71;;;-5.58;79.26
50682;BME280;36779;52.168;20.878;2022-12-18T07:19:35;102410.10;;;-5.55;79.46
50682;BME280;36779;52.168;20.878;2022-12-18T07:22:04;102410.42;;;-5.52;79.41
50682;BME280;36779;52.168;20.878;2022-12-18T07:24:35;102413.54;;;-5.49;79.31
50682;BME280;36779;52.168;20.878;2022-12-18T07:27:04;102413.52;;;-5.48;79.50
50682;BME280;36779;52.168;20.878;2022-12-18T07:29:35;102417.31;;;-5.45;79.51
50682;BME280;36779;52.168;20.878;2022-12-18T07:32:04;102416.80;;;-5.46;79.48
50682;BME280;36779;52.168;20.878;2022-12-18T07:34:36;102421.48;;;-5.46;79.42
50682;BME280;36779;52.168;20.878;2022-12-18T07:37:05;102436.88;;;-5.43;79.50
50682;BME280;36779;52.168;20.878;2022-12-18T07:39:39;102440.66;;;-5.38;79.44
50682;BME280;36779;52.168;20.878;2022-12-18T07:42:09;102444.93;;;-5.30;79.51
50682;BME280;36779;52.168;20.878;2022-12-18T07:44:58;102444.04;;;-5.24;79.42
50682;BME280;36779;52.168;20.878;2022-12-18T07:47:27;102449.04;;;-5.21;79.40
50682;BME280;36779;52.168;20.878;2022-12-18T07:49:57;102452.79;;;-5.14;79.44
50682;BME280;36779;52.168;20.878;2022-12-18T07:52:26;102459.34;;;-5.09;79.38
50682;BME280;36779;52.168;20.878;2022-12-18T07:54:55;102464.75;;;-5.13;79.24
50682;BME280;36779;52.168;20.878;2022-12-18T07:57:24;102465.27;;;-5.12;79.30
50682;BME280;36779;52.168;20.878;2022-12-18T08:00:15;102465.56;;;-5.05;79.65
50682;BME280;36779;52.168;20.878;2022-12-18T08:02:44;102468.14;;;-5.02;79.47
50682;BME280;36779;52.168;20.878;2022-12-18T08:05:13;102470.88;;;-4.97;79.72
50682;BME280;36779;52.168;20.878;2022-12-18T08:07:42;102482.81;;;-4.93;79.61
50682;BME280;36779;52.168;20.878;2022-12-18T08:10:13;102485.04;;;-4.90;79.78
50682;BME280;36779;52.168;20.878;2022-12-18T08:12:42;102488.81;;;-4.85;79.79
50682;BME280;36779;52.168;20.878;2022-12-18T08:15:12;102488.41;;;-4.78;79.65
50682;BME280;36779;52.168;20.878;2022-12-18T08:17:42;102494.92;;;-4.68;79.70
50682;BME280;36779;52.168;20.878;2022-12-18T08:20:13;102505.97;;;-4.61;79.74
50682;BME280;36779;52.168;20.878;2022-12-18T08:22:42;102511.14;;;-4.58;79.73
50682;BME280;36779;52.168;20.878;2022-12-18T08:25:14;102512.84;;;-4.54;79.73
50682;BME280;36779;52.168;20.878;2022-12-18T08:27:44;102520.11;;;-4.52;79.86
50682;BME280;36779;52.168;20.878;2022-12-18T08:30:14;102524.06;;;-4.48;79.73
50682;BME280;36779;52.168;20.878;2022-12-18T08:32:43;102527.05;;;-4.50;79.64
50682;BME280;36779;52.168;20.878;2022-12-18T08:35:13;102524.44;;;-4.50;79.51
50682;BME280;36779;52.168;20.878;2022-12-18T08:37:47;102526.17;;;-4.50;79.69
50682;BME280;36779;52.168;20.878;2022-12-18T08:40:18;102529.63;;;-4.48;79.73
50682;BME280;36779;52.168;20.878;2022-12-18T08:42:48;102530.84;;;-4.47;79.76
50682;BME280;36779;52.168;20.878;2022-12-18T08:45:35;102531.16;;;-4.46;79.64
50682;BME280;36779;52.168;20.878;2022-12-18T08:48:14;102528.54;;;-4.44;79.50
50682;BME280;36779;52.168;20.878;2022-12-18T08:50:55;102531.34;;;-4.46;79.38
50682;BME280;36779;52.168;20.878;2022-12-18T08:53:25;102534.48;;;-4.48;79.32
50682;BME280;36779;52.168;20.878;2022-12-18T08:56:00;102542.99;;;-4.48;79.24
50682;BME280;36779;52.168;20.878;2022-12-18T08:58:31;102540.35;;;-4.45;79.37
50682;BME280;36779;52.168;20.878;2022-12-18T09:01:06;102540.83;;;-4.39;79.49
50682;BME280;36779;52.168;20.878;2022-12-18T09:03:37;102545.23;;;-4.27;79.77
50682;BME280;36779;52.168;20.878;2022-12-18T09:06:14;102547.23;;;-4.18;79.80
50682;BME280;36779;52.168;20.878;2022-12-18T09:08:44;102548.92;;;-4.15;79.72
50682;BME280;36779;52.168;20.878;2022-12-18T09:11:27;102552.05;;;-4.15;79.58
50682;BME280;36779;52.168;20.878;2022-12-18T09:14:04;102561.27;;;-4.16;79.44
50682;BME280;36779;52.168;20.878;2022-12-18T09:16:46;102561.27;;;-4.17;79.53
50682;BME280;36779;52.168;20.878;2022-12-18T09:19:15;102568.16;;;-4.12;79.83
50682;BME280;36779;52.168;20.878;2022-12-18T09:21:45;102568.42;;;-4.01;79.86
50682;BME280;36779;52.168;20.878;2022-12-18T09:24:17;102566.75;;;-3.93;79.83
50682;BME280;36779;52.168;20.878;2022-12-18T09:26:52;102570.19;;;-3.88;79.67
50682;BME280;36779;52.168;20.878;2022-12-18T09:29:25;102565.16;;;-3.89;79.72
50682;BME280;36779;52.168;20.878;2022-12-18T09:31:57;102568.08;;;-3.86;79.74
50682;BME280;36779;52.168;20.878;2022-12-18T09:34:31;102569.40;;;-3.79;79.82
50682;BME280;36779;52.168;20.878;2022-12-18T09:37:01;102571.78;;;-3.74;79.80
50682;BME280;36779;52.168;20.878;2022-12-18T09:39:30;102575.52;;;-3.68;79.94
50682;BME280;36779;52.168;20.878;2022-12-18T09:41:59;102578.27;;;-3.65;79.87
50682;BME280;36779;52.168;20.878;2022-12-18T09:44:30;102576.17;;;-3.64;79.87
50682;BME280;36779;52.168;20.878;2022-12-18T09:47:09;102577.60;;;-3.67;79.74
50682;BME280;36779;52.168;20.878;2022-12-18T09:49:43;102579.88;;;-3.69;79.69
50682;BME280;36779;52.168;20.878;2022-12-18T09:52:19;102575.92;;;-3.72;79.68
50682;BME280;36779;52.168;20.878;2022-12-18T09:55:02;102579.23;;;-3.73;79.66
50682;BME280;36779;52.168;20.878;2022-12-18T09:57:39;102585.96;;;-3.69;79.75
50682;BME280;36779;52.168;20.878;2022-12-18T10:00:18;102586.61;;;-3.65;79.76
50682;BME280;36779;52.168;20.878;2022-12-18T10:02:49;102583.06;;;-3.59;79.78
50682;BME280;36779;52.168;20.878;2022-12-18T10:05:25;102580.33;;;-3.47;79.93
50682;BME280;36779;52.168;20.878;2022-12-18T10:08:03;102583.45;;;-3.33;80.11
50682;BME280;36779;52.168;20.878;2022-12-18T10:10:48;102592.38;;;-3.23;79.83
50682;BME280;36779;52.168;20.878;2022-12-18T10:13:28;102596.34;;;-3.21;79.76
50682;BME280;36779;52.168;20.878;2022-12-18T10:16:10;102591.85;;;-3.23;79.50
50682;BME280;36779;52.168;20.878;2022-12-18T10:19:01;102596.33;;;-3.34;79.51
50682;BME280;36779;52.168;20.878;2022-12-18T10:21:42;102595.11;;;-3.34;79.59
50682;BME280;36779;52.168;20.878;2022-12-18T10:24:20;102591.58;;;-3.30;79.80
50682;BME280;36779;52.168;20.878;2022-12-18T10:27:04;102589.62;;;-3.25;79.84
50682;BME280;36779;52.168;20.878;2022-12-18T10:29:48;102591.31;;;-3.23;79.83
50682;BME280;36779;52.168;20.878;2022-12-18T10:32:19;102586.66;;;-3.25;79.73
50682;BME280;36779;52.168;20.878;2022-12-18T10:34:50;102588.59;;;-3.27;79.61
50682;BME280;36779;52.168;20.878;2022-12-18T10:37:26;102590.08;;;-3.34;79.43
50682;BME280;36779;52.168;20.878;2022-12-18T10:40:20;102592.05;;;-3.40;79.32
50682;BME280;36779;52.168;20.878;2022-12-18T10:43:04;102588.48;;;-3.33;79.54
50682;BME280;36779;52.168;20.878;2022-12-18T10:45:43;102589.60;;;-3.24;79.48
50682;BME280;36779;52.168;20.878;2022-12-18T10:48:27;102584.86;;;-3.22;79.41
50682;BME280;36779;52.168;20.878;2022-12-18T10:50:57;102581.35;;;-3.18;79.63
50682;BME280;36779;52.168;20.878;2022-12-18T10:53:44;102583.10;;;-3.19;79.40
50682;BME280;36779;52.168;20.878;2022-12-18T10:56:29;102582.74;;;-3.19;79.35
50682;BME280;36779;52.168;20.878;2022-12-18T10:59:02;102584.63;;;-3.16;79.42
50682;BME280;36779;52.168;20.878;2022-12-18T11:01:48;102591.04;;;-3.16;79.39
50682;BME280;36779;52.168;20.878;2022-12-18T11:04:30;102594.66;;;-3.13;79.59
50682;BME280;36779;52.168;20.878;2022-12-18T11:07:01;102593.38;;;-3.08;79.56
50682;BME280;36779;52.168;20.878;2022-12-18T11:09:32;102591.35;;;-3.12;79.22
50682;BME280;36779;52.168;20.878;2022-12-18T11:12:05;102586.56;;;-3.18;78.99
50682;BME280;36779;52.168;20.878;2022-12-18T11:14:45;102583.59;;;-3.17;79.34
50682;BME280;36779;52.168;20.878;2022-12-18T11:17:20;102587.70;;;-3.13;79.16
50682;BME280;36779;52.168;20.878;2022-12-18T11:19:55;102584.36;;;-3.11;79.18
50682;BME280;36779;52.168;20.878;2022-12-18T11:22:26;102584.53;;;-3.10;79.18
50682;BME280;36779;52.168;20.878;2022-12-18T11:24:58;102586.69;;;-3.02;79.32
50682;BME280;36779;52.168;20.878;2022-12-18T11:27:52;102592.90;;;-2.86;79.59
50682;BME280;36779;52.168;20.878;2022-12-18T11:30:25;102591.98;;;-2.72;79.66
50682;BME280;36779;52.168;20.878;2022-12-18T11:32:57;102595.07;;;-2.57;80.01
50682;BME280;36779;52.168;20.878;2022-12-18T11:35:35;102598.67;;;-2.42;80.10
50682;BME280;36779;52.168;20.878;2022-12-18T11:38:22;102596.70;;;-2.29;80.08
50682;BME280;36779;52.168;20.878;2022-12-18T11:41:00;102596.45;;;-2.25;79.86
50682;BME280;36779;52.168;20.878;2022-12-18T11:43:35;102596.20;;;-2.19;80.02
50682;BME280;36779;52.168;20.878;2022-12-18T11:46:13;102595.23;;;-2.16;80.08
50682;BME280;36779;52.168;20.878;2022-12-18T11:48:48;102588.80;;;-2.15;79.86
50682;BME280;36779;52.168;20.878;2022-12-18T11:51:25;102585.20;;;-2.19;79.67
50682;BME280;36779;52.168;20.878;2022-12-18T11:54:04;102593.28;;;-2.32;79.20
50682;BME280;36779;52.168;20.878;2022-12-18T11:56:44;102594.77;;;-2.49;78.96
50682;BME280;36779;52.168;20.878;2022-12-18T11:59:25;102595.30;;;-2.60;78.87
50682;BME280;36779;52.168;20.878;2022-12-18T12:02:27;102599.43;;;-2.68;78.85
50682;BME280;36779;52.168;20.878;2022-12-18T12:05:23;102606.06;;;-2.59;79.38
50682;BME280;36779;52.168;20.878;2022-12-18T12:07:57;102609.52;;;-2.46;79.46
50682;BME280;36779;52.168;20.878;2022-12-18T12:10:37;102611.89;;;-2.42;79.53
50682;BME280;36779;52.168;20.878;2022-12-18T12:13:23;102612.86;;;-2.37;79.59
50682;BME280;36779;52.168;20.878;2022-12-18T12:16:12;102611.98;;;-2.35;79.62
50682;BME280;36779;52.168;20.878;2022-12-18T12:18:56;102609.07;;;-2.40;79.58
50682;BME280;36779;52.168;20.878;2022-12-18T12:21:39;102609.35;;;-2.46;79.33
50682;BME280;36779;52.168;20.878;2022-12-18T12:24:35;102611.55;;;-2.54;79.48
50682;BME280;36779;52.168;20.878;2022-12-18T12:27:13;102614.80;;;-2.61;79.34
50682;BME280;36779;52.168;20.878;2022-12-18T12:29:53;102613.42;;;-2.74;79.03
50682;BME280;36779;52.168;20.878;2022-12-18T12:32:32;102624.02;;;-2.85;78.99
50682;BME280;36779;52.168;20.878;2022-12-18T12:35:58;102631.11;;;-2.93;78.91
50682;BME280;36779;52.168;20.878;2022-12-18T12:38:35;102639.55;;;-2.99;78.87
50682;BME280;36779;52.168;20.878;2022-12-18T12:41:07;102641.03;;;-3.06;78.68
50682;BME280;36779;52.168;20.878;2022-12-18T12:43:59;102646.01;;;-3.15;78.47
50682;BME280;36779;52.168;20.878;2022-12-18T12:46:35;102644.48;;;-3.19;78.41
50682;BME280;36779;52.168;20.878;2022-12-18T12:49:19;102644.86;;;-3.21;78.59
50682;BME280;36779;52.168;20.878;2022-12-18T12:51:56;102646.41;;;-3.19;78.63
50682;BME280;36779;52.168;20.878;2022-12-18T12:54:27;102660.16;;;-3.21;78.72
50682;BME280;36779;52.168;20.878;2022-12-18T12:57:04;102662.21;;;-3.18;78.89
50682;BME280;36779;52.168;20.878;2022-12-18T12:59:49;102671.58;;;-3.15;79.10
50682;BME280;36779;52.168;20.878;2022-12-18T13:02:24;102677.48;;;-3.15;79.15
50682;BME280;36779;52.168;20.878;2022-12-18T13:05:03;102683.79;;;-3.18;79.08
50682;BME280;36779;52.168;20.878;2022-12-18T13:07:47;102685.61;;;-3.25;79.09
50682;BME280;36779;52.168;20.878;2022-12-18T13:10:32;102688.48;;;-3.33;79.03
50682;BME280;36779;52.168;20.878;2022-12-18T13:13:03;102687.16;;;-3.39;79.07
50682;BME280;36779;52.168;20.878;2022-12-18T13:15:42;102685.94;;;-3.40;79.19